CDT,Max TemperatureF,Mean TemperatureF,Min TemperatureF,Max Dew PointF,MeanDew PointF,Min DewpointF,Max Humidity, Mean Humidity, Min Humidity, Max Sea Level PressureIn, Mean Sea Level PressureIn, Min Sea Level PressureIn, Max VisibilityMiles, Mean VisibilityMiles, Min VisibilityMiles, Max Wind SpeedMPH, Mean Wind SpeedMPH, Max Gust SpeedMPH,PrecipitationIn, CloudCover, Events, WindDirDegrees
2013-4-1,46,39,32,28,19,12,61,44,27,30.23,30.13,29.96,10,10,10,22,13,30,0.00,2,,324
2013-4-2,48,37,25,18,14,9,68,44,19,30.35,30.30,30.25,10,10,10,16,8,25,0.00,0,,335
2013-4-3,51,38,25,22,18,13,74,48,22,30.43,30.36,30.31,10,10,10,17,8,22,0.00,0,,66
2013-4-4,60,43,25,25,19,15,75,47,18,30.30,30.14,30.03,10,10,10,10,4,21,0.00,0,,46
2013-4-5,62,50,37,32,26,22,76,50,24,30.18,30.11,30.04,10,10,7,17,9,28,0.00,0,,16
2013-4-6,73,58,42,41,32,22,53,38,23,30.09,29.90,29.70,10,10,10,36,20,48,T,1,Rain,171
2013-4-7,75,63,51,51,41,36,72,49,25,29.94,29.88,29.78,10,10,2,22,6,24,0.00,0,,245
2013-4-8,75,66,57,57,55,51,84,67,50,29.91,29.81,29.72,10,10,7,24,13,32,0.07,5,Rain-Thunderstorm,189
2013-4-9,79,68,56,60,57,53,93,72,50,29.90,29.86,29.83,10,10,8,33,14,44,T,6,Rain,179
2013-4-10,73,60,46,64,56,48,100,86,72,29.85,29.79,29.74,10,6,2,33,13,44,1.47,6,Rain-Thunderstorm,310
2013-4-11,56,48,39,54,44,28,100,82,64,29.78,29.66,29.59,10,8,1,23,12,29,0.11,8,Rain-Thunderstorm,257
2013-4-12,44,41,37,34,31,27,76,68,59,29.97,29.80,29.69,10,10,10,22,13,31,T,8,Rain,249
2013-4-13,55,47,39,40,32,27,76,59,41,30.05,29.99,29.96,10,10,10,21,10,26,T,5,,254
2013-4-14,75,60,44,49,44,39,83,59,35,29.97,29.81,29.68,10,10,10,28,15,37,0.05,2,Rain,154
2013-4-15,66,57,48,61,52,45,89,75,60,29.95,29.87,29.75,10,9,2,28,13,44,0.20,7,Rain-Thunderstorm,192
2013-4-16,50,47,44,48,43,39,93,82,71,30.19,30.15,30.02,10,7,1,22,11,28,1.36,8,Rain-Thunderstorm,21
2013-4-17,76,61,46,68,51,39,93,85,76,30.18,29.99,29.73,10,7,2,22,13,28,0.01,7,Rain-Thunderstorm,92
2013-4-18,73,57,41,64,56,35,100,87,73,29.70,29.65,29.55,10,6,1,38,16,53,2.39,7,Rain-Thunderstorm,215
2013-4-19,45,41,36,32,29,27,70,64,57,30.05,29.81,29.66,10,10,8,25,15,39,0.02,8,Rain,268
2013-4-20,49,41,32,33,28,26,82,62,42,30.40,30.27,30.07,10,10,1,12,6,15,0.00,2,,332
2013-4-21,58,47,35,39,33,29,82,61,40,30.49,30.40,30.31,10,10,10,20,11,30,0.00,0,,124
2013-4-22,68,51,34,45,38,32,89,62,34,30.31,30.18,30.05,10,10,10,17,8,24,T,0,,141
2013-4-23,60,50,39,54,46,39,100,81,62,30.06,29.93,29.85,10,7,2,25,13,32,0.44,7,Rain,280
2013-4-24,50,44,37,39,36,31,100,75,50,30.24,30.08,29.94,10,10,6,20,12,28,0.09,6,Rain,304
2013-4-25,57,48,38,38,32,28,86,62,38,30.35,30.29,30.20,10,10,10,21,10,28,0.00,0,,264
2013-4-26,64,50,35,48,42,34,92,72,51,30.40,30.34,30.30,10,10,10,20,10,26,0.00,2,,187
2013-4-27,59,51,42,54,51,43,100,81,62,30.30,30.10,29.94,10,5,2,16,8,20,0.36,7,Rain,93
2013-4-28,61,57,52,57,54,51,100,92,84,29.94,29.90,29.87,10,5,1,13,7,16,0.03,8,,343
2013-4-29,74,57,40,60,52,43,100,79,57,29.97,29.90,29.81,10,6,0,22,11,28,0.00,0,Fog,189
2013-4-30,83,71,59,63,59,56,93,70,46,29.95,29.88,29.82,10,10,10,21,13,26,0.00,0,,178